sensor_id;sensor_type;location;lat;lon;timestamp;P1;durP1;ratioP1;P2;durP2;ratioP2
26622;SDS011;14254;50.968;5.366;2023-08-01T00:01:31;0.93;;;0.90;;
26622;SDS011;14254;50.968;5.366;2023-08-01T00:03:57;1.67;;;1.15;;
26622;SDS011;14254;50.968;5.366;2023-08-01T00:06:23;2.15;;;1.40;;
26622;SDS011;14254;50.968;5.366;2023-08-01T00:08:50;3.38;;;1.40;;
26622;SDS011;14254;50.968;5.366;2023-08-01T00:11:16;1.52;;;1.30;;
26622;SDS011;14254;50.968;5.366;2023-08-01T00:13:42;2.90;;;1.35;;
26622;SDS011;14254;50.968;5.366;2023-08-01T00:16:08;2.20;;;1.63;;
26622;SDS011;14254;50.968;5.366;2023-08-01T00:18:34;6.22;;;1.45;;
26622;SDS011;14254;50.968;5.366;2023-08-01T00:21:00;1.63;;;1.52;;
26622;SDS011;14254;50.968;5.366;2023-08-01T00:23:26;2.08;;;1.60;;
26622;SDS011;14254;50.968;5.366;2023-08-01T00:25:52;3.10;;;1.63;;
26622;SDS011;14254;50.968;5.366;2023-08-01T00:28:18;3.60;;;1.65;;
26622;SDS011;14254;50.968;5.366;2023-08-01T00:30:44;2.40;;;1.73;;
26622;SDS011;14254;50.968;5.366;2023-08-01T00:33:10;4.75;;;2.15;;
26622;SDS011;14254;50.968;5.366;2023-08-01T00:35:35;3.35;;;1.95;;
26622;SDS011;14254;50.968;5.366;2023-08-01T00:38:01;3.53;;;1.88;;
26622;SDS011;14254;50.968;5.366;2023-08-01T00:40:33;7.72;;;2.10;;
26622;SDS011;14254;50.968;5.366;2023-08-01T00:42:59;6.53;;;2.40;;
26622;SDS011;14254;50.968;5.366;2023-08-01T00:45:28;2.75;;;2.22;;
26622;SDS011;14254;50.968;5.366;2023-08-01T00:47:55;6.18;;;2.25;;
26622;SDS011;14254;50.968;5.366;2023-08-01T00:50:21;4.28;;;2.08;;
26622;SDS011;14254;50.968;5.366;2023-08-01T00:52:48;6.10;;;2.42;;
26622;SDS011;14254;50.968;5.366;2023-08-01T00:55:16;4.53;;;2.50;;
26622;SDS011;14254;50.968;5.366;2023-08-01T00:57:43;3.78;;;2.08;;
26622;SDS011;14254;50.968;5.366;2023-08-01T01:00:09;5.57;;;2.40;;
26622;SDS011;14254;50.968;5.366;2023-08-01T01:02:35;5.35;;;2.78;;
26622;SDS011;14254;50.968;5.366;2023-08-01T01:05:01;3.60;;;2.40;;
26622;SDS011;14254;50.968;5.366;2023-08-01T01:07:28;4.13;;;2.40;;
26622;SDS011;14254;50.968;5.366;2023-08-01T01:09:55;8.45;;;2.83;;
26622;SDS011;14254;50.968;5.366;2023-08-01T01:12:20;8.73;;;2.78;;
26622;SDS011;14254;50.968;5.366;2023-08-01T01:14:46;5.03;;;3.03;;
26622;SDS011;14254;50.968;5.366;2023-08-01T01:17:12;17.13;;;6.00;;
26622;SDS011;14254;50.968;5.366;2023-08-01T01:19:37;4.25;;;3.17;;
26622;SDS011;14254;50.968;5.366;2023-08-01T01:22:03;10.50;;;3.22;;
26622;SDS011;14254;50.968;5.366;2023-08-01T01:24:31;5.80;;;3.25;;
26622;SDS011;14254;50.968;5.366;2023-08-01T01:26:58;3.67;;;3.20;;
26622;SDS011;14254;50.968;5.366;2023-08-01T01:29:25;10.55;;;3.38;;
26622;SDS011;14254;50.968;5.366;2023-08-01T01:31:52;7.45;;;3.45;;
26622;SDS011;14254;50.968;5.366;2023-08-01T01:34:18;6.72;;;3.40;;
26622;SDS011;14254;50.968;5.366;2023-08-01T01:36:44;8.40;;;3.75;;
26622;SDS011;14254;50.968;5.366;2023-08-01T01:39:10;6.93;;;4.00;;
26622;SDS011;14254;50.968;5.366;2023-08-01T01:41:35;8.55;;;3.90;;
26622;SDS011;14254;50.968;5.366;2023-08-01T01:44:01;11.10;;;4.07;;
26622;SDS011;14254;50.968;5.366;2023-08-01T01:46:27;6.32;;;4.22;;
26622;SDS011;14254;50.968;5.366;2023-08-01T01:48:52;10.00;;;4.43;;
26622;SDS011;14254;50.968;5.366;2023-08-01T01:51:19;9.48;;;5.15;;
26622;SDS011;14254;50.968;5.366;2023-08-01T01:53:46;12.07;;;5.07;;
26622;SDS011;14254;50.968;5.366;2023-08-01T01:56:11;9.93;;;5.63;;
26622;SDS011;14254;50.968;5.366;2023-08-01T01:58:37;17.30;;;6.40;;
26622;SDS011;14254;50.968;5.366;2023-08-01T02:01:03;16.27;;;6.85;;
26622;SDS011;14254;50.968;5.366;2023-08-01T02:03:28;11.40;;;6.13;;
26622;SDS011;14254;50.968;5.366;2023-08-01T02:05:54;13.82;;;5.53;;
26622;SDS011;14254;50.968;5.366;2023-08-01T02:08:20;10.48;;;6.47;;
26622;SDS011;14254;50.968;5.366;2023-08-01T02:10:45;14.07;;;7.00;;
26622;SDS011;14254;50.968;5.366;2023-08-01T02:13:11;19.30;;;6.65;;
26622;SDS011;14254;50.968;5.366;2023-08-01T02:15:36;13.18;;;6.97;;
26622;SDS011;14254;50.968;5.366;2023-08-01T02:18:02;15.00;;;7.63;;
26622;SDS011;14254;50.968;5.366;2023-08-01T02:20:28;10.35;;;6.55;;
26622;SDS011;14254;50.968;5.366;2023-08-01T02:22:54;14.18;;;6.85;;
26622;SDS011;14254;50.968;5.366;2023-08-01T02:25:19;14.85;;;6.88;;
26622;SDS011;14254;50.968;5.366;2023-08-01T02:27:45;16.77;;;6.75;;
26622;SDS011;14254;50.968;5.366;2023-08-01T02:30:11;11.75;;;6.70;;
26622;SDS011;14254;50.968;5.366;2023-08-01T02:32:36;11.68;;;6.72;;
26622;SDS011;14254;50.968;5.366;2023-08-01T02:35:02;10.60;;;6.28;;
26622;SDS011;14254;50.968;5.366;2023-08-01T02:37:28;15.88;;;7.05;;
26622;SDS011;14254;50.968;5.366;2023-08-01T02:39:53;18.25;;;7.03;;
26622;SDS011;14254;50.968;5.366;2023-08-01T02:42:19;18.92;;;7.15;;
26622;SDS011;14254;50.968;5.366;2023-08-01T02:44:45;12.90;;;6.38;;
26622;SDS011;14254;50.968;5.366;2023-08-01T02:47:10;19.08;;;8.15;;
26622;SDS011;14254;50.968;5.366;2023-08-01T02:49:36;15.68;;;7.05;;
26622;SDS011;14254;50.968;5.366;2023-08-01T02:52:01;15.35;;;7.38;;
26622;SDS011;14254;50.968;5.366;2023-08-01T02:54:27;20.00;;;7.40;;
26622;SDS011;14254;50.968;5.366;2023-08-01T02:56:53;18.83;;;7.07;;
26622;SDS011;14254;50.968;5.366;2023-08-01T02:59:18;17.98;;;7.13;;
26622;SDS011;14254;50.968;5.366;2023-08-01T03:01:44;21.65;;;8.80;;
26622;SDS011;14254;50.968;5.366;2023-08-01T03:04:10;12.65;;;7.95;;
26622;SDS011;14254;50.968;5.366;2023-08-01T03:06:37;15.15;;;7.45;;
26622;SDS011;14254;50.968;5.366;2023-08-01T03:09:03;14.50;;;7.50;;
26622;SDS011;14254;50.968;5.366;2023-08-01T03:11:32;12.20;;;7.63;;
26622;SDS011;14254;50.968;5.366;2023-08-01T03:14:00;17.80;;;7.75;;
26622;SDS011;14254;50.968;5.366;2023-08-01T03:16:26;18.20;;;8.70;;
26622;SDS011;14254;50.968;5.366;2023-08-01T03:18:51;21.00;;;8.48;;
26622;SDS011;14254;50.968;5.366;2023-08-01T03:21:17;23.50;;;9.02;;
26622;SDS011;14254;50.968;5.366;2023-08-01T03:23:42;12.02;;;8.70;;
26622;SDS011;14254;50.968;5.366;2023-08-01T03:26:08;19.92;;;8.88;;
26622;SDS011;14254;50.968;5.366;2023-08-01T03:28:34;17.75;;;9.23;;
26622;SDS011;14254;50.968;5.366;2023-08-01T03:31:00;16.23;;;8.43;;
26622;SDS011;14254;50.968;5.366;2023-08-01T03:33:26;14.55;;;8.85;;
26622;SDS011;14254;50.968;5.366;2023-08-01T03:35:52;16.80;;;7.85;;
26622;SDS011;14254;50.968;5.366;2023-08-01T03:38:17;13.18;;;7.68;;
26622;SDS011;14254;50.968;5.366;2023-08-01T03:40:43;15.65;;;8.30;;
26622;SDS011;14254;50.968;5.366;2023-08-01T03:43:09;21.02;;;8.40;;
26622;SDS011;14254;50.968;5.366;2023-08-01T03:45:35;17.10;;;8.30;;
26622;SDS011;14254;50.968;5.366;2023-08-01T03:48:01;16.52;;;9.43;;
26622;SDS011;14254;50.968;5.366;2023-08-01T03:50:27;20.10;;;8.30;;
26622;SDS011;14254;50.968;5.366;2023-08-01T03:52:52;16.98;;;8.30;;
26622;SDS011;14254;50.968;5.366;2023-08-01T03:55:18;14.95;;;8.68;;
26622;SDS011;14254;50.968;5.366;2023-08-01T03:57:44;18.08;;;8.68;;
26622;SDS011;14254;50.968;5.366;2023-08-01T04:00:09;15.75;;;8.35;;
26622;SDS011;14254;50.968;5.366;2023-08-01T04:02:41;27.55;;;9.07;;
26622;SDS011;14254;50.968;5.366;2023-08-01T04:05:07;15.63;;;8.65;;
26622;SDS011;14254;50.968;5.366;2023-08-01T04:07:34;16.63;;;8.38;;
26622;SDS011;14254;50.968;5.366;2023-08-01T04:10:03;16.00;;;8.85;;
26622;SDS011;14254;50.968;5.366;2023-08-01T04:12:32;19.02;;;9.40;;
26622;SDS011;14254;50.968;5.366;2023-08-01T04:14:58;14.90;;;9.27;;
26622;SDS011;14254;50.968;5.366;2023-08-01T04:17:24;18.92;;;9.30;;
26622;SDS011;14254;50.968;5.366;2023-08-01T04:19:50;20.92;;;9.40;;
26622;SDS011;14254;50.968;5.366;2023-08-01T04:22:16;16.15;;;8.57;;
26622;SDS011;14254;50.968;5.366;2023-08-01T04:24:41;31.38;;;9.90;;
26622;SDS011;14254;50.968;5.366;2023-08-01T04:27:07;23.92;;;10.63;;
26622;SDS011;14254;50.968;5.366;2023-08-01T04:29:33;24.70;;;9.73;;
26622;SDS011;14254;50.968;5.366;2023-08-01T04:31:59;19.65;;;9.63;;
26622;SDS011;14254;50.968;5.366;2023-08-01T04:34:25;16.30;;;9.00;;
26622;SDS011;14254;50.968;5.366;2023-08-01T04:36:50;18.13;;;8.48;;
26622;SDS011;14254;50.968;5.366;2023-08-01T04:39:16;19.77;;;8.45;;
26622;SDS011;14254;50.968;5.366;2023-08-01T04:41:41;19.15;;;9.63;;
26622;SDS011;14254;50.968;5.366;2023-08-01T04:44:07;21.23;;;9.80;;
26622;SDS011;14254;50.968;5.366;2023-08-01T04:46:33;25.23;;;9.10;;
26622;SDS011;14254;50.968;5.366;2023-08-01T04:48:58;23.35;;;9.02;;
26622;SDS011;14254;50.968;5.366;2023-08-01T04:51:24;16.35;;;8.40;;
26622;SDS011;14254;50.968;5.366;2023-08-01T04:53:50;15.30;;;9.27;;
26622;SDS011;14254;50.968;5.366;2023-08-01T04:56:16;13.07;;;8.80;;
26622;SDS011;14254;50.968;5.366;2023-08-01T04:58:41;16.10;;;8.95;;
26622;SDS011;14254;50.968;5.366;2023-08-01T05:01:07;25.55;;;10.02;;
26622;SDS011;14254;50.968;5.366;2023-08-01T05:03:33;18.88;;;8.63;;
26622;SDS011;14254;50.968;5.366;2023-08-01T05:05:58;16.67;;;9.50;;
26622;SDS011;14254;50.968;5.366;2023-08-01T05:08:24;17.58;;;9.07;;
26622;SDS011;14254;50.968;5.366;2023-08-01T05:10:50;21.17;;;9.35;;
26622;SDS011;14254;50.968;5.366;2023-08-01T05:13:16;19.90;;;8.82;;
26622;SDS011;14254;50.968;5.366;2023-08-01T05:15:44;19.65;;;9.32;;
26622;SDS011;14254;50.968;5.366;2023-08-01T05:18:12;20.80;;;8.65;;
26622;SDS011;14254;50.968;5.366;2023-08-01T05:20:39;17.63;;;9.57;;
26622;SDS011;14254;50.968;5.366;2023-08-01T05:23:04;22.30;;;9.55;;
26622;SDS011;14254;50.968;5.366;2023-08-01T05:25:30;21.42;;;9.02;;
26622;SDS011;14254;50.968;5.366;2023-08-01T05:27:56;19.00;;;8.98;;
26622;SDS011;14254;50.968;5.366;2023-08-01T05:30:21;22.75;;;9.07;;
26622;SDS011;14254;50.968;5.366;2023-08-01T05:32:47;17.55;;;8.25;;
26622;SDS011;14254;50.968;5.366;2023-08-01T05:35:13;16.40;;;8.63;;
26622;SDS011;14254;50.968;5.366;2023-08-01T05:37:38;18.23;;;9.00;;
26622;SDS011;14254;50.968;5.366;2023-08-01T05:40:04;22.27;;;9.30;;
26622;SDS011;14254;50.968;5.366;2023-08-01T05:42:30;14.57;;;7.38;;
26622;SDS011;14254;50.968;5.366;2023-08-01T05:44:56;16.35;;;8.02;;
26622;SDS011;14254;50.968;5.366;2023-08-01T05:47:21;14.65;;;7.13;;
26622;SDS011;14254;50.968;5.366;2023-08-01T05:49:50;18.65;;;7.85;;
26622;SDS011;14254;50.968;5.366;2023-08-01T05:52:15;29.70;;;9.82;;
26622;SDS011;14254;50.968;5.366;2023-08-01T05:54:41;14.20;;;7.53;;
26622;SDS011;14254;50.968;5.366;2023-08-01T05:57:07;15.82;;;7.90;;
26622;SDS011;14254;50.968;5.366;2023-08-01T05:59:33;17.85;;;7.90;;
26622;SDS011;14254;50.968;5.366;2023-08-01T06:01:59;18.40;;;7.47;;
26622;SDS011;14254;50.968;5.366;2023-08-01T06:04:24;15.40;;;7.07;;
26622;SDS011;14254;50.968;5.366;2023-08-01T06:06:50;22.98;;;7.97;;
26622;SDS011;14254;50.968;5.366;2023-08-01T06:09:15;22.77;;;9.10;;
26622;SDS011;14254;50.968;5.366;2023-08-01T06:11:41;20.65;;;8.68;;
26622;SDS011;14254;50.968;5.366;2023-08-01T06:14:07;20.27;;;9.02;;
26622;SDS011;14254;50.968;5.366;2023-08-01T06:16:33;15.82;;;8.35;;
26622;SDS011;14254;50.968;5.366;2023-08-01T06:18:59;21.65;;;8.63;;
26622;SDS011;14254;50.968;5.366;2023-08-01T06:21:25;21.70;;;8.73;;
26622;SDS011;14254;50.968;5.366;2023-08-01T06:23:51;20.38;;;8.18;;
26622;SDS011;14254;50.968;5.366;2023-08-01T06:26:17;25.58;;;9.38;;
26622;SDS011;14254;50.968;5.366;2023-08-01T06:28:42;18.02;;;8.63;;
26622;SDS011;14254;50.968;5.366;2023-08-01T06:31:08;16.85;;;8.82;;
26622;SDS011;14254;50.968;5.366;2023-08-01T06:33:34;21.92;;;9.40;;
26622;SDS011;14254;50.968;5.366;2023-08-01T06:35:59;15.75;;;8.32;;
26622;SDS011;14254;50.968;5.366;2023-08-01T06:38:25;23.27;;;8.93;;
26622;SDS011;14254;50.968;5.366;2023-08-01T06:40:51;16.23;;;8.07;;
26622;SDS011;14254;50.968;5.366;2023-08-01T06:43:16;19.75;;;8.52;;
26622;SDS011;14254;50.968;5.366;2023-08-01T06:45:42;21.38;;;8.32;;
26622;SDS011;14254;50.968;5.366;2023-08-01T06:48:07;16.65;;;8.27;;
26622;SDS011;14254;50.968;5.366;2023-08-01T06:50:33;20.48;;;8.30;;
26622;SDS011;14254;50.968;5.366;2023-08-01T06:52:59;20.58;;;8.50;;
26622;SDS011;14254;50.968;5.366;2023-08-01T06:55:26;21.38;;;8.82;;
26622;SDS011;14254;50.968;5.366;2023-08-01T06:57:51;20.30;;;8.27;;
26622;SDS011;14254;50.968;5.366;2023-08-01T07:00:17;16.80;;;8.18;;
26622;SDS011;14254;50.968;5.366;2023-08-01T07:02:43;21.35;;;7.53;;
26622;SDS011;14254;50.968;5.366;2023-08-01T07:05:08;17.73;;;7.78;;
26622;SDS011;14254;50.968;5.366;2023-08-01T07:07:34;14.35;;;7.82;;
26622;SDS011;14254;50.968;5.366;2023-08-01T07:10:00;15.13;;;7.43;;
26622;SDS011;14254;50.968;5.366;2023-08-01T07:12:26;13.82;;;6.60;;
26622;SDS011;14254;50.968;5.366;2023-08-01T07:14:51;22.48;;;7.88;;
26622;SDS011;14254;50.968;5.366;2023-08-01T07:17:17;18.52;;;7.38;;
26622;SDS011;14254;50.968;5.366;2023-08-01T07:19:43;14.02;;;7.40;;
26622;SDS011;14254;50.968;5.366;2023-08-01T07:22:08;17.33;;;7.57;;
26622;SDS011;14254;50.968;5.366;2023-08-01T07:24:34;15.00;;;7.20;;
26622;SDS011;14254;50.968;5.366;2023-08-01T07:27:00;15.15;;;6.80;;
26622;SDS011;14254;50.968;5.366;2023-08-01T07:29:25;12.68;;;6.68;;
26622;SDS011;14254;50.968;5.366;2023-08-01T07:31:51;14.77;;;6.65;;
26622;SDS011;14254;50.968;5.366;2023-08-01T07:34:17;16.83;;;7.38;;
26622;SDS011;14254;50.968;5.366;2023-08-01T07:36:42;14.73;;;6.85;;
26622;SDS011;14254;50.968;5.366;2023-08-01T07:39:08;17.88;;;7.63;;
26622;SDS011;14254;50.968;5.366;2023-08-01T07:41:35;16.70;;;7.13;;
26622;SDS011;14254;50.968;5.366;2023-08-01T07:44:01;15.07;;;6.10;;
26622;SDS011;14254;50.968;5.366;2023-08-01T07:46:28;14.85;;;6.55;;
26622;SDS011;14254;50.968;5.366;2023-08-01T07:48:54;13.80;;;7.05;;
26622;SDS011;14254;50.968;5.366;2023-08-01T07:51:19;11.10;;;6.88;;
26622;SDS011;14254;50.968;5.366;2023-08-01T07:53:45;13.57;;;7.38;;
26622;SDS011;14254;50.968;5.366;2023-08-01T07:56:11;16.75;;;6.22;;
26622;SDS011;14254;50.968;5.366;2023-08-01T07:58:36;16.38;;;7.03;;
26622;SDS011;14254;50.968;5.366;2023-08-01T08:01:05;12.02;;;6.28;;
26622;SDS011;14254;50.968;5.366;2023-08-01T08:03:31;12.88;;;6.57;;
26622;SDS011;14254;50.968;5.366;2023-08-01T08:05:57;16.48;;;7.40;;
26622;SDS011;14254;50.968;5.366;2023-08-01T08:08:24;12.55;;;6.18;;
26622;SDS011;14254;50.968;5.366;2023-08-01T08:10:49;15.80;;;6.13;;
26622;SDS011;14254;50.968;5.366;2023-08-01T08:13:15;9.65;;;5.05;;
26622;SDS011;14254;50.968;5.366;2023-08-01T08:15:41;12.65;;;6.18;;
26622;SDS011;14254;50.968;5.366;2023-08-01T08:18:06;16.80;;;6.25;;
26622;SDS011;14254;50.968;5.366;2023-08-01T08:20:33;11.95;;;6.13;;
26622;SDS011;14254;50.968;5.366;2023-08-01T08:23:06;13.98;;;6.32;;
26622;SDS011;14254;50.968;5.366;2023-08-01T08:25:31;10.77;;;5.68;;
26622;SDS011;14254;50.968;5.366;2023-08-01T08:27:57;13.48;;;5.97;;
26622;SDS011;14254;50.968;5.366;2023-08-01T08:30:22;17.48;;;7.50;;
26622;SDS011;14254;50.968;5.366;2023-08-01T08:32:49;14.68;;;6.10;;
26622;SDS011;14254;50.968;5.366;2023-08-01T08:35:15;12.27;;;6.13;;
26622;SDS011;14254;50.968;5.366;2023-08-01T08:37:41;12.07;;;6.25;;
26622;SDS011;14254;50.968;5.366;2023-08-01T08:40:06;13.52;;;5.38;;
26622;SDS011;14254;50.968;5.366;2023-08-01T08:42:33;7.82;;;5.30;;
26622;SDS011;14254;50.968;5.366;2023-08-01T08:45:02;9.32;;;5.38;;
26622;SDS011;14254;50.968;5.366;2023-08-01T08:47:31;9.68;;;4.82;;
26622;SDS011;14254;50.968;5.366;2023-08-01T08:50:01;9.13;;;4.82;;
26622;SDS011;14254;50.968;5.366;2023-08-01T08:52:27;13.13;;;5.60;;
26622;SDS011;14254;50.968;5.366;2023-08-01T08:54:53;12.13;;;5.38;;
26622;SDS011;14254;50.968;5.366;2023-08-01T08:57:21;12.93;;;5.47;;
26622;SDS011;14254;50.968;5.366;2023-08-01T08:59:47;12.95;;;5.65;;
26622;SDS011;14254;50.968;5.366;2023-08-01T09:02:14;10.02;;;4.82;;
26622;SDS011;14254;50.968;5.366;2023-08-01T09:04:41;8.60;;;4.05;;
26622;SDS011;14254;50.968;5.366;2023-08-01T09:07:08;13.20;;;4.55;;
26622;SDS011;14254;50.968;5.366;2023-08-01T09:09:36;9.30;;;4.80;;
26622;SDS011;14254;50.968;5.366;2023-08-01T09:12:02;11.70;;;4.32;;
26622;SDS011;14254;50.968;5.366;2023-08-01T09:14:28;8.38;;;4.07;;
26622;SDS011;14254;50.968;5.366;2023-08-01T09:16:54;10.60;;;4.60;;
26622;SDS011;14254;50.968;5.366;2023-08-01T09:19:22;13.02;;;4.55;;
26622;SDS011;14254;50.968;5.366;2023-08-01T09:21:50;13.38;;;4.60;;
26622;SDS011;14254;50.968;5.366;2023-08-01T09:24:19;13.60;;;4.70;;
26622;SDS011;14254;50.968;5.366;2023-08-01T09:26:46;19.00;;;4.70;;
26622;SDS011;14254;50.968;5.366;2023-08-01T09:29:13;10.63;;;4.53;;
26622;SDS011;14254;50.968;5.366;2023-08-01T09:31:42;9.05;;;4.95;;
26622;SDS011;14254;50.968;5.366;2023-08-01T09:34:25;7.63;;;3.75;;
26622;SDS011;14254;50.968;5.366;2023-08-01T09:36:56;8.27;;;4.45;;
26622;SDS011;14254;50.968;5.366;2023-08-01T09:39:23;10.02;;;4.75;;
26622;SDS011;14254;50.968;5.366;2023-08-01T09:41:56;13.52;;;4.05;;
26622;SDS011;14254;50.968;5.366;2023-08-01T09:44:22;9.95;;;4.70;;
26622;SDS011;14254;50.968;5.366;2023-08-01T09:46:56;14.25;;;5.18;;
26622;SDS011;14254;50.968;5.366;2023-08-01T09:49:23;8.38;;;4.30;;
26622;SDS011;14254;50.968;5.366;2023-08-01T09:51:49;12.07;;;4.25;;
26622;SDS011;14254;50.968;5.366;2023-08-01T09:54:16;10.52;;;4.65;;
26622;SDS011;14254;50.968;5.366;2023-08-01T09:56:46;13.82;;;6.43;;
26622;SDS011;14254;50.968;5.366;2023-08-01T09:59:20;9.95;;;4.75;;
26622;SDS011;14254;50.968;5.366;2023-08-01T10:01:47;9.20;;;4.03;;
26622;SDS011;14254;50.968;5.366;2023-08-01T10:04:23;7.68;;;3.80;;
26622;SDS011;14254;50.968;5.366;2023-08-01T10:07:03;9.80;;;3.00;;
26622;SDS011;14254;50.968;5.366;2023-08-01T10:09:33;8.07;;;3.50;;
26622;SDS011;14254;50.968;5.366;2023-08-01T10:12:01;7.60;;;3.10;;
26622;SDS011;14254;50.968;5.366;2023-08-01T10:14:27;7.72;;;3.17;;
26622;SDS011;14254;50.968;5.366;2023-08-01T10:16:53;17.70;;;3.58;;
26622;SDS011;14254;50.968;5.366;2023-08-01T10:19:20;6.93;;;3.40;;
26622;SDS011;14254;50.968;5.366;2023-08-01T10:21:47;9.35;;;3.55;;
26622;SDS011;14254;50.968;5.366;2023-08-01T10:24:13;10.10;;;3.10;;
26622;SDS011;14254;50.968;5.366;2023-08-01T10:26:43;7.35;;;3.05;;
26622;SDS011;14254;50.968;5.366;2023-08-01T10:29:10;5.97;;;2.72;;
26622;SDS011;14254;50.968;5.366;2023-08-01T10:31:36;6.68;;;3.08;;
26622;SDS011;14254;50.968;5.366;2023-08-01T10:34:12;7.82;;;2.72;;
26622;SDS011;14254;50.968;5.366;2023-08-01T10:36:38;7.47;;;4.10;;
26622;SDS011;14254;50.968;5.366;2023-08-01T10:39:04;6.57;;;2.58;;
26622;SDS011;14254;50.968;5.366;2023-08-01T10:41:31;7.30;;;3.05;;
26622;SDS011;14254;50.968;5.366;2023-08-01T10:44:19;5.90;;;2.78;;
26622;SDS011;14254;50.968;5.366;2023-08-01T10:49:36;7.63;;;2.90;;
26622;SDS011;14254;50.968;5.366;2023-08-01T10:52:04;7.60;;;2.33;;
26622;SDS011;14254;50.968;5.366;2023-08-01T10:54:40;8.60;;;2.35;;
26622;SDS011;14254;50.968;5.366;2023-08-01T10:57:06;6.82;;;2.83;;
26622;SDS011;14254;50.968;5.366;2023-08-01T10:59:33;8.30;;;2.75;;
26622;SDS011;14254;50.968;5.366;2023-08-01T11:01:59;5.22;;;2.67;;
26622;SDS011;14254;50.968;5.366;2023-08-01T11:04:26;7.90;;;2.70;;
26622;SDS011;14254;50.968;5.366;2023-08-01T11:06:53;5.82;;;2.63;;
26622;SDS011;14254;50.968;5.366;2023-08-01T11:09:23;5.30;;;2.08;;
26622;SDS011;14254;50.968;5.366;2023-08-01T11:11:52;6.75;;;2.25;;
26622;SDS011;14254;50.968;5.366;2023-08-01T11:16:49;6.53;;;2.17;;
26622;SDS011;14254;50.968;5.366;2023-08-01T11:19:22;5.90;;;2.28;;
26622;SDS011;14254;50.968;5.366;2023-08-01T11:21:52;6.20;;;3.03;;
26622;SDS011;14254;50.968;5.366;2023-08-01T11:24:19;4.22;;;2.05;;
26622;SDS011;14254;50.968;5.366;2023-08-01T11:26:46;7.40;;;3.08;;
26622;SDS011;14254;50.968;5.366;2023-08-01T11:29:13;4.90;;;2.50;;
26622;SDS011;14254;50.968;5.366;2023-08-01T11:31:41;6.53;;;2.70;;
26622;SDS011;14254;50.968;5.366;2023-08-01T11:34:17;7.90;;;3.03;;
26622;SDS011;14254;50.968;5.366;2023-08-01T11:36:43;5.00;;;2.55;;
26622;SDS011;14254;50.968;5.366;2023-08-01T11:39:11;4.57;;;2.80;;
26622;SDS011;14254;50.968;5.366;2023-08-01T11:41:37;8.10;;;2.83;;
26622;SDS011;14254;50.968;5.366;2023-08-01T11:44:04;6.00;;;2.55;;
26622;SDS011;14254;50.968;5.366;2023-08-01T11:46:33;5.43;;;2.65;;
26622;SDS011;14254;50.968;5.366;2023-08-01T11:49:00;6.70;;;3.40;;
26622;SDS011;14254;50.968;5.366;2023-08-01T11:51:27;5.43;;;2.50;;
26622;SDS011;14254;50.968;5.366;2023-08-01T11:54:02;5.32;;;2.92;;
26622;SDS011;14254;50.968;5.366;2023-08-01T11:56:29;6.18;;;3.00;;
26622;SDS011;14254;50.968;5.366;2023-08-01T11:58:56;4.43;;;2.80;;
26622;SDS011;14254;50.968;5.366;2023-08-01T12:01:22;8.05;;;3.10;;
26622;SDS011;14254;50.968;5.366;2023-08-01T12:06:17;7.88;;;3.00;;
26622;SDS011;14254;50.968;5.366;2023-08-01T12:08:45;7.05;;;2.63;;
26622;SDS011;14254;50.968;5.366;2023-08-01T12:11:21;6.40;;;3.28;;
26622;SDS011;14254;50.968;5.366;2023-08-01T12:14:09;8.20;;;3.03;;
26622;SDS011;14254;50.968;5.366;2023-08-01T12:16:37;7.93;;;3.53;;
26622;SDS011;14254;50.968;5.366;2023-08-01T12:19:04;6.47;;;3.13;;
26622;SDS011;14254;50.968;5.366;2023-08-01T12:21:31;5.80;;;2.90;;
26622;SDS011;14254;50.968;5.366;2023-08-01T12:23:58;5.93;;;3.05;;
26622;SDS011;14254;50.968;5.366;2023-08-01T12:26:24;8.30;;;3.20;;
26622;SDS011;14254;50.968;5.366;2023-08-01T12:28:50;6.35;;;3.17;;
26622;SDS011;14254;50.968;5.366;2023-08-01T12:31:19;6.93;;;3.05;;
26622;SDS011;14254;50.968;5.366;2023-08-01T12:33:46;10.63;;;2.92;;
26622;SDS011;14254;50.968;5.366;2023-08-01T12:36:12;6.07;;;2.67;;
26622;SDS011;14254;50.968;5.366;2023-08-01T12:38:38;7.25;;;3.67;;
26622;SDS011;14254;50.968;5.366;2023-08-01T12:41:05;5.50;;;2.05;;
26622;SDS011;14254;50.968;5.366;2023-08-01T12:43:32;4.53;;;2.30;;
26622;SDS011;14254;50.968;5.366;2023-08-01T12:45:58;5.28;;;2.28;;
26622;SDS011;14254;50.968;5.366;2023-08-01T12:48:24;5.47;;;2.05;;
26622;SDS011;14254;50.968;5.366;2023-08-01T12:50:51;6.95;;;2.63;;
26622;SDS011;14254;50.968;5.366;2023-08-01T12:53:16;9.75;;;3.00;;
26622;SDS011;14254;50.968;5.366;2023-08-01T12:55:49;4.47;;;2.25;;
26622;SDS011;14254;50.968;5.366;2023-08-01T12:58:15;7.22;;;2.00;;
26622;SDS011;14254;50.968;5.366;2023-08-01T13:00:41;6.13;;;2.28;;
26622;SDS011;14254;50.968;5.366;2023-08-01T13:03:08;8.45;;;2.30;;
26622;SDS011;14254;50.968;5.366;2023-08-01T13:05:35;6.38;;;1.90;;
26622;SDS011;14254;50.968;5.366;2023-08-01T13:08:02;5.47;;;1.63;;
26622;SDS011;14254;50.968;5.366;2023-08-01T13:10:34;4.07;;;1.63;;
26622;SDS011;14254;50.968;5.366;2023-08-01T13:13:01;4.32;;;1.85;;
26622;SDS011;14254;50.968;5.366;2023-08-01T13:15:28;3.75;;;1.58;;
26622;SDS011;14254;50.968;5.366;2023-08-01T13:17:54;7.72;;;1.80;;
26622;SDS011;14254;50.968;5.366;2023-08-01T13:20:20;5.55;;;2.00;;
26622;SDS011;14254;50.968;5.366;2023-08-01T13:22:46;3.47;;;1.60;;
26622;SDS011;14254;50.968;5.366;2023-08-01T13:25:14;5.75;;;2.00;;
26622;SDS011;14254;50.968;5.366;2023-08-01T13:27:40;4.40;;;1.80;;
26622;SDS011;14254;50.968;5.366;2023-08-01T13:30:06;5.20;;;1.80;;
26622;SDS011;14254;50.968;5.366;2023-08-01T13:32:33;2.40;;;1.40;;
26622;SDS011;14254;50.968;5.366;2023-08-01T13:34:58;5.68;;;2.00;;
26622;SDS011;14254;50.968;5.366;2023-08-01T13:37:24;8.48;;;2.47;;
26622;SDS011;14254;50.968;5.366;2023-08-01T13:39:50;5.78;;;1.55;;
26622;SDS011;14254;50.968;5.366;2023-08-01T13:42:16;5.05;;;2.15;;
26622;SDS011;14254;50.968;5.366;2023-08-01T13:44:41;5.85;;;2.20;;
26622;SDS011;14254;50.968;5.366;2023-08-01T13:47:07;5.85;;;1.73;;
26622;SDS011;14254;50.968;5.366;2023-08-01T13:49:33;12.43;;;2.33;;
26622;SDS011;14254;50.968;5.366;2023-08-01T13:51:59;4.03;;;1.70;;
26622;SDS011;14254;50.968;5.366;2023-08-01T13:54:25;5.10;;;1.92;;
26622;SDS011;14254;50.968;5.366;2023-08-01T13:56:51;5.90;;;1.80;;
26622;SDS011;14254;50.968;5.366;2023-08-01T13:59:18;4.68;;;1.92;;
26622;SDS011;14254;50.968;5.366;2023-08-01T14:01:45;3.15;;;1.80;;
26622;SDS011;14254;50.968;5.366;2023-08-01T14:04:11;4.40;;;1.60;;
26622;SDS011;14254;50.968;5.366;2023-08-01T14:06:39;3.35;;;1.98;;
26622;SDS011;14254;50.968;5.366;2023-08-01T14:09:06;6.38;;;1.45;;
26622;SDS011;14254;50.968;5.366;2023-08-01T14:11:33;5.28;;;1.38;;
26622;SDS011;14254;50.968;5.366;2023-08-01T14:14:00;2.65;;;1.45;;
26622;SDS011;14254;50.968;5.366;2023-08-01T14:16:26;3.05;;;1.10;;
26622;SDS011;14254;50.968;5.366;2023-08-01T14:18:51;2.47;;;1.15;;
26622;SDS011;14254;50.968;5.366;2023-08-01T14:21:17;2.15;;;0.82;;
26622;SDS011;14254;50.968;5.366;2023-08-01T14:23:43;6.35;;;1.40;;
26622;SDS011;14254;50.968;5.366;2023-08-01T14:26:09;3.70;;;1.20;;
26622;SDS011;14254;50.968;5.366;2023-08-01T14:28:34;2.40;;;1.42;;
26622;SDS011;14254;50.968;5.366;2023-08-01T14:31:03;6.20;;;1.50;;
26622;SDS011;14254;50.968;5.366;2023-08-01T14:33:29;5.40;;;1.48;;
26622;SDS011;14254;50.968;5.366;2023-08-01T14:35:56;3.33;;;1.60;;
26622;SDS011;14254;50.968;5.366;2023-08-01T14:38:22;4.72;;;1.33;;
26622;SDS011;14254;50.968;5.366;2023-08-01T14:40:48;3.45;;;1.50;;
26622;SDS011;14254;50.968;5.366;2023-08-01T14:43:13;3.03;;;1.15;;
26622;SDS011;14254;50.968;5.366;2023-08-01T14:45:39;4.15;;;1.48;;